createdAt,value
2018-09-04T00:00:26.349Z,0.00
2018-09-04T00:01:26.337Z,0.00
2018-09-04T00:02:26.337Z,0.00
2018-09-04T00:03:26.314Z,0.00
2018-09-04T00:04:26.300Z,0.00
2018-09-04T00:05:26.336Z,0.00
2018-09-04T00:06:26.302Z,0.00
2018-09-04T00:07:26.283Z,0.00
2018-09-04T00:08:26.260Z,0.00
2018-09-04T00:09:26.245Z,0.00
2018-09-04T00:10:26.251Z,0.00
2018-09-04T00:11:26.279Z,0.00
2018-09-04T00:12:26.234Z,0.00
2018-09-04T00:13:26.203Z,0.00
2018-09-04T00:14:26.208Z,0.00
2018-09-04T00:15:26.179Z,0.00
2018-09-04T00:16:26.176Z,0.00
2018-09-04T00:17:26.234Z,0.00
2018-09-04T00:18:26.147Z,0.00
2018-09-04T00:19:26.149Z,0.00
2018-09-04T00:20:26.161Z,0.00
2018-09-04T00:21:26.119Z,0.00
2018-09-04T00:22:26.134Z,0.00
2018-09-04T00:23:26.159Z,0.00
2018-09-04T00:24:26.083Z,0.00
2018-09-04T00:25:26.082Z,0.00
2018-09-04T00:26:26.094Z,0.00
2018-09-04T00:27:26.066Z,0.00
2018-09-04T00:28:26.084Z,0.00
2018-09-04T00:29:26.034Z,0.00
2018-09-04T00:30:26.022Z,0.00
2018-09-04T00:31:26.009Z,0.00
2018-09-04T00:32:26.012Z,0.00
2018-09-04T00:33:25.992Z,0.00
2018-09-04T00:34:26.056Z,0.00
2018-09-04T00:35:25.967Z,0.00
2018-09-04T00:36:25.956Z,0.00
2018-09-04T00:37:25.974Z,0.00
2018-09-04T00:38:25.935Z,0.00
2018-09-04T00:39:25.922Z,0.00
2018-09-04T00:40:25.973Z,0.00
2018-09-04T00:41:25.902Z,0.00
2018-09-04T00:42:25.890Z,0.00
2018-09-04T00:43:25.892Z,0.00
2018-09-04T00:44:25.869Z,0.00
2018-09-04T00:45:25.864Z,0.00
2018-09-04T00:46:25.897Z,0.00
2018-09-04T00:47:25.857Z,0.00
2018-09-04T00:48:25.843Z,0.00
2018-09-04T00:49:25.816Z,0.00
2018-09-04T00:50:25.801Z,0.00
2018-09-04T00:51:25.805Z,0.00
2018-09-04T00:52:25.830Z,0.00
2018-09-04T00:53:25.790Z,0.00
2018-09-04T00:54:25.764Z,0.00
2018-09-04T00:55:25.756Z,0.00
2018-09-04T00:56:25.738Z,0.00
2018-09-04T00:57:25.730Z,0.00
2018-09-04T00:58:25.807Z,0.00
2018-09-04T00:59:25.707Z,0.00
2018-09-04T01:00:25.695Z,0.00
2018-09-04T01:01:25.692Z,0.00
2018-09-04T01:02:25.681Z,0.00
2018-09-04T01:03:25.676Z,0.00
2018-09-04T01:04:25.712Z,0.00
2018-09-04T01:05:25.644Z,0.00
2018-09-04T01:06:25.631Z,0.00
2018-09-04T01:07:25.623Z,0.00
2018-09-04T01:08:25.669Z,0.00
2018-09-04T01:09:25.595Z,0.00
2018-09-04T01:10:25.590Z,0.00
2018-09-04T01:11:25.654Z,0.00
2018-09-04T01:12:25.568Z,0.00
2018-09-04T01:13:25.580Z,0.00
2018-09-04T01:14:25.543Z,0.00
2018-09-04T01:15:25.535Z,0.00
2018-09-04T01:16:25.523Z,0.00
2018-09-04T01:17:25.554Z,0.00
2018-09-04T01:18:25.516Z,0.00
2018-09-04T01:19:25.494Z,0.00
2018-09-04T01:20:25.474Z,0.00
2018-09-04T01:21:25.510Z,0.00
2018-09-04T01:22:25.459Z,0.00
2018-09-04T01:23:25.499Z,0.00
2018-09-04T01:24:25.468Z,0.00
2018-09-04T01:25:25.429Z,0.00
2018-09-04T01:26:25.413Z,0.00
2018-09-04T01:27:25.401Z,0.00
2018-09-04T01:28:25.417Z,0.00
2018-09-04T01:29:25.421Z,0.00
2018-09-04T01:30:25.366Z,0.00
2018-09-04T01:31:25.358Z,0.00
2018-09-04T01:32:25.343Z,0.00
2018-09-04T01:33:25.337Z,0.00
2018-09-04T01:34:25.339Z,0.00
2018-09-04T01:35:25.416Z,0.00
2018-09-04T01:36:25.307Z,0.00
2018-09-04T01:37:25.293Z,0.00
2018-09-04T01:38:25.277Z,0.00
2018-09-04T01:39:25.292Z,0.00
2018-09-04T01:40:25.256Z,0.00
2018-09-04T01:41:25.285Z,0.00
2018-09-04T01:42:25.236Z,0.00
2018-09-04T01:43:25.222Z,0.00
2018-09-04T01:44:25.229Z,0.00
2018-09-04T01:45:25.203Z,0.00
2018-09-04T01:46:25.202Z,0.00
2018-09-04T01:47:25.235Z,0.00
2018-09-04T01:48:25.168Z,0.00
2018-09-04T01:49:25.178Z,0.00
2018-09-04T01:50:25.195Z,0.00
2018-09-04T01:51:25.143Z,0.00
2018-09-04T01:52:25.127Z,0.00
2018-09-04T01:53:25.172Z,0.00
2018-09-04T01:54:25.121Z,0.00
2018-09-04T01:55:25.102Z,0.00
2018-09-04T01:56:25.086Z,0.00
2018-09-04T01:57:25.076Z,0.00
2018-09-04T01:58:25.109Z,0.00
2018-09-04T01:59:25.067Z,0.00
2018-09-04T02:00:25.066Z,0.00
2018-09-04T02:01:25.029Z,0.00
2018-09-04T02:02:25.021Z,0.00
2018-09-04T02:03:25.039Z,0.00
2018-09-04T02:04:25.072Z,0.00
2018-09-04T02:05:24.983Z,0.00
2018-09-04T02:06:25.005Z,0.00
2018-09-04T02:07:24.962Z,0.00
2018-09-04T02:08:24.956Z,0.00
2018-09-04T02:09:24.963Z,0.00
2018-09-04T02:10:24.987Z,0.00
2018-09-04T02:11:24.923Z,0.00
2018-09-04T02:12:24.906Z,0.00
2018-09-04T02:13:24.900Z,0.00
2018-09-04T02:14:24.910Z,0.00
2018-09-04T02:15:24.882Z,0.00
2018-09-04T02:16:24.904Z,0.00
2018-09-04T02:17:24.856Z,0.00
2018-09-04T02:18:24.845Z,0.00
2018-09-04T02:19:24.850Z,0.00
2018-09-04T02:20:24.826Z,0.00
2018-09-04T02:21:24.812Z,0.00
2018-09-04T02:22:24.866Z,0.00
2018-09-04T02:23:24.786Z,0.00
2018-09-04T02:24:24.808Z,0.00
2018-09-04T02:25:24.766Z,0.00
2018-09-04T02:26:24.754Z,0.00
2018-09-04T02:27:24.744Z,0.00
2018-09-04T02:28:24.788Z,0.00
2018-09-04T02:29:24.720Z,0.00
2018-09-04T02:30:24.723Z,0.00
2018-09-04T02:31:24.703Z,0.00
2018-09-04T02:32:24.687Z,0.00
2018-09-04T02:33:24.681Z,0.00
2018-09-04T02:34:24.713Z,0.00
2018-09-04T02:35:24.702Z,0.00
2018-09-04T02:36:24.664Z,0.00
2018-09-04T02:37:24.637Z,0.00
2018-09-04T02:38:24.627Z,0.00
2018-09-04T02:39:24.609Z,0.00
2018-09-04T02:40:24.683Z,0.00
2018-09-04T02:41:24.586Z,0.00
2018-09-04T02:42:24.610Z,0.00
2018-09-04T02:43:24.565Z,0.00
2018-09-04T02:44:24.555Z,0.00
2018-09-04T02:45:24.561Z,0.00
2018-09-04T02:46:24.590Z,0.00
2018-09-04T02:47:24.525Z,0.00
2018-09-04T02:48:24.531Z,0.00
2018-09-04T02:49:24.505Z,0.00
2018-09-04T02:50:24.507Z,0.00
2018-09-04T02:51:24.523Z,0.00
2018-09-04T02:52:24.510Z,0.00
2018-09-04T02:53:24.457Z,0.00
2018-09-04T02:54:24.447Z,0.00
2018-09-04T02:55:24.458Z,0.00
2018-09-04T02:56:24.427Z,0.00
2018-09-04T02:57:24.410Z,0.00
2018-09-04T02:58:24.440Z,0.00
2018-09-04T02:59:24.397Z,0.00
2018-09-04T03:00:24.397Z,0.00
2018-09-04T03:01:24.372Z,0.00
2018-09-04T03:02:24.356Z,0.00
2018-09-04T03:03:24.345Z,0.00
2018-09-04T03:04:24.365Z,0.00
2018-09-04T03:05:24.345Z,0.00
2018-09-04T03:06:24.311Z,0.00
2018-09-04T03:07:24.308Z,0.00
2018-09-04T03:08:24.300Z,0.00
2018-09-04T03:09:24.284Z,0.00
2018-09-04T03:10:24.333Z,0.00
2018-09-04T03:11:24.260Z,0.00
2018-09-04T03:12:24.248Z,0.00
2018-09-04T03:13:24.276Z,0.00
2018-09-04T03:14:24.224Z,0.00
2018-09-04T03:15:24.235Z,0.00
2018-09-04T03:16:24.253Z,0.00
2018-09-04T03:17:24.203Z,0.00
2018-09-04T03:18:24.195Z,0.00
2018-09-04T03:19:24.176Z,0.00
2018-09-04T03:20:24.178Z,0.00
2018-09-04T03:21:24.153Z,0.00
2018-09-04T03:22:24.140Z,0.00
2018-09-04T03:23:24.174Z,0.00
2018-09-04T03:24:24.134Z,0.00
2018-09-04T03:25:24.132Z,0.00
2018-09-04T03:26:24.094Z,0.00
2018-09-04T03:27:24.092Z,0.00
2018-09-04T03:28:24.071Z,0.00
2018-09-04T03:29:24.130Z,0.00
2018-09-04T03:30:24.064Z,0.00
2018-09-04T03:31:24.042Z,0.00
2018-09-04T03:32:24.034Z,0.00
2018-09-04T03:33:24.021Z,0.00
2018-09-04T03:34:24.020Z,0.00
2018-09-04T03:35:24.083Z,0.00
2018-09-04T03:36:23.992Z,0.00
2018-09-04T03:37:23.980Z,0.00
2018-09-04T03:38:23.964Z,0.00
2018-09-04T03:39:23.953Z,0.00
2018-09-04T03:40:23.949Z,0.00
2018-09-04T03:41:24.001Z,0.00
2018-09-04T03:42:23.971Z,0.00
2018-09-04T03:43:23.909Z,0.00
2018-09-04T03:44:23.925Z,0.00
2018-09-04T03:45:23.891Z,0.00
2018-09-04T03:46:23.897Z,0.00
2018-09-04T03:47:23.913Z,0.00
2018-09-04T03:48:23.860Z,0.00
2018-09-04T03:49:23.853Z,0.00
2018-09-04T03:50:23.847Z,0.00
2018-09-04T03:51:23.852Z,0.00
2018-09-04T03:52:23.911Z,0.00
2018-09-04T03:53:23.806Z,0.00
2018-09-04T03:54:23.849Z,0.00
2018-09-04T03:55:23.779Z,0.00
2018-09-04T03:56:23.788Z,0.00
2018-09-04T03:57:23.767Z,0.00
2018-09-04T03:58:23.754Z,0.00
2018-09-04T03:59:23.745Z,0.00
2018-09-04T04:00:23.781Z,0.00
2018-09-04T04:01:23.755Z,0.00
2018-09-04T04:02:23.703Z,0.00
2018-09-04T04:03:23.707Z,0.00
2018-09-04T04:04:23.686Z,0.00
2018-09-04T04:05:23.679Z,0.00
2018-09-04T04:06:23.853Z,0.00
2018-09-04T04:07:23.660Z,0.00
2018-09-04T04:08:23.640Z,0.00
2018-09-04T04:09:23.635Z,0.00
2018-09-04T04:10:23.623Z,0.00
2018-09-04T04:11:23.634Z,0.00
2018-09-04T04:12:23.659Z,0.00
2018-09-04T04:13:23.587Z,0.00
2018-09-04T04:14:23.579Z,0.00
2018-09-04T04:15:23.566Z,0.00
2018-09-04T04:16:23.579Z,0.00
2018-09-04T04:17:23.545Z,0.00
2018-09-04T04:18:23.605Z,0.00
2018-09-04T04:19:23.525Z,0.00
2018-09-04T04:20:23.517Z,4.00
2018-09-04T04:21:23.520Z,4.00
2018-09-04T04:22:23.510Z,4.00
2018-09-04T04:23:23.480Z,4.00
2018-09-04T04:24:23.551Z,4.00
2018-09-04T04:25:23.467Z,8.00
2018-09-04T04:26:23.465Z,4.00
2018-09-04T04:27:23.435Z,8.00
2018-09-04T04:28:23.425Z,12.00
2018-09-04T04:29:23.422Z,12.00
2018-09-04T04:30:23.441Z,16.00
2018-09-04T04:31:23.430Z,16.00
2018-09-04T04:32:23.395Z,20.00
2018-09-04T04:33:23.373Z,24.00
2018-09-04T04:34:23.367Z,32.00
2018-09-04T04:35:23.352Z,32.00
2018-09-04T04:36:23.405Z,40.00
2018-09-04T04:37:23.334Z,44.00
2018-09-04T04:38:23.326Z,56.00
2018-09-04T04:39:23.309Z,64.00
2018-09-04T04:40:23.299Z,72.00
2018-09-04T04:41:23.306Z,84.00
2018-09-04T04:42:23.358Z,96.00
2018-09-04T04:43:23.269Z,108.00
2018-09-04T04:44:23.257Z,124.00
2018-09-04T04:45:23.246Z,140.00
2018-09-04T04:46:23.258Z,156.00
2018-09-04T04:47:23.226Z,176.00
2018-09-04T04:48:23.366Z,196.00
2018-09-04T04:49:23.200Z,216.00
2018-09-04T04:50:23.203Z,240.00
2018-09-04T04:51:23.178Z,268.00
2018-09-04T04:52:23.183Z,292.00
2018-09-04T04:53:23.161Z,324.00
2018-09-04T04:54:23.216Z,352.00
2018-09-04T04:55:23.145Z,388.00
2018-09-04T04:56:23.125Z,428.00
2018-09-04T04:57:23.134Z,464.00
2018-09-04T04:58:23.105Z,504.00
2018-09-04T04:59:23.139Z,548.00
2018-09-04T05:00:23.153Z,592.00
2018-09-04T05:01:23.078Z,636.00
2018-09-04T05:02:23.078Z,680.00
2018-09-04T05:03:23.048Z,720.00
2018-09-04T05:04:23.084Z,760.00
2018-09-04T05:05:23.099Z,804.00
2018-09-04T05:06:23.017Z,844.00
2018-09-04T05:07:23.080Z,892.00
2018-09-04T05:08:23.002Z,940.00
2018-09-04T05:09:22.982Z,996.00
2018-09-04T05:10:22.975Z,1052.00
2018-09-04T05:11:23.048Z,1112.00
2018-09-04T05:12:22.975Z,1172.00
2018-09-04T05:13:22.940Z,1232.00
2018-09-04T05:14:22.932Z,1288.00
2018-09-04T05:15:22.917Z,1344.00
2018-09-04T05:16:22.910Z,1400.00
2018-09-04T05:17:22.978Z,1456.00
2018-09-04T05:18:22.891Z,1508.00
2018-09-04T05:19:22.878Z,1568.00
2018-09-04T05:20:22.871Z,1620.00
2018-09-04T05:21:22.848Z,1676.00
2018-09-04T05:22:22.852Z,1736.00
2018-09-04T05:23:22.881Z,1796.00
2018-09-04T05:24:22.822Z,1848.00
2018-09-04T05:25:22.807Z,1904.00
2018-09-04T05:26:22.794Z,1964.00
2018-09-04T05:27:22.863Z,2016.00
2018-09-04T05:28:22.774Z,2072.00
2018-09-04T05:29:22.879Z,2128.00
2018-09-04T05:30:22.751Z,2184.00
2018-09-04T05:31:22.746Z,2236.00
2018-09-04T05:32:22.755Z,2292.00
2018-09-04T05:33:22.716Z,2348.00
2018-09-04T05:34:22.718Z,2400.00
2018-09-04T05:35:22.788Z,2456.00
2018-09-04T05:36:22.690Z,2500.00
2018-09-04T05:37:22.692Z,2556.00
2018-09-04T05:38:22.667Z,2604.00
2018-09-04T05:39:22.658Z,2668.00
2018-09-04T05:40:22.657Z,2728.00
2018-09-04T05:41:22.691Z,2784.00
2018-09-04T05:42:22.658Z,2852.00
2018-09-04T05:43:22.639Z,2924.00
2018-09-04T05:44:22.601Z,3000.00
2018-09-04T05:45:22.599Z,3076.00
2018-09-04T05:46:22.581Z,3148.00
2018-09-04T05:47:22.651Z,3224.00
2018-09-04T05:48:22.552Z,3284.00
2018-09-04T05:49:22.545Z,3360.00
2018-09-04T05:50:22.542Z,3432.00
2018-09-04T05:51:22.519Z,3500.00
2018-09-04T05:52:22.517Z,3568.00
2018-09-04T05:53:22.570Z,3632.00
2018-09-04T05:54:22.487Z,3704.00
2018-09-04T05:55:22.482Z,3768.00
2018-09-04T05:56:22.466Z,3836.00
2018-09-04T05:57:22.471Z,3900.00
2018-09-04T05:58:22.470Z,3956.00
2018-09-04T05:59:22.485Z,4004.00
2018-09-04T06:00:22.423Z,4096.00
2018-09-04T06:01:22.410Z,4244.00
2018-09-04T06:02:22.398Z,4356.00
2018-09-04T06:03:22.420Z,4372.00
2018-09-04T06:04:22.385Z,4396.00
2018-09-04T06:05:22.410Z,4548.00
2018-09-04T06:06:22.358Z,4640.00
2018-09-04T06:07:22.354Z,4720.00
2018-09-04T06:08:22.359Z,4728.00
2018-09-04T06:09:22.331Z,4716.00
2018-09-04T06:10:22.317Z,4728.00
2018-09-04T06:11:22.355Z,4756.00
2018-09-04T06:12:22.292Z,4852.00
2018-09-04T06:13:22.309Z,5064.00
2018-09-04T06:14:22.270Z,5216.00
2018-09-04T06:15:22.261Z,5248.00
2018-09-04T06:16:22.252Z,5440.00
2018-09-04T06:17:22.285Z,5672.00
2018-09-04T06:18:22.240Z,5864.00
2018-09-04T06:19:22.218Z,5976.00
2018-09-04T06:20:22.213Z,6032.00
2018-09-04T06:21:22.195Z,6008.00
2018-09-04T06:22:22.181Z,5888.00
2018-09-04T06:23:22.248Z,5796.00
2018-09-04T06:24:22.177Z,5764.00
2018-09-04T06:25:22.152Z,5824.00
2018-09-04T06:26:22.137Z,6004.00
2018-09-04T06:27:22.124Z,6148.00
2018-09-04T06:28:22.154Z,6260.00
2018-09-04T06:29:22.143Z,6348.00
2018-09-04T06:30:22.142Z,6424.00
2018-09-04T06:31:22.096Z,6556.00
2018-09-04T06:32:22.072Z,6776.00
2018-09-04T06:33:22.065Z,6812.00
2018-09-04T06:34:22.068Z,6700.00
2018-09-04T06:35:22.040Z,6792.00
2018-09-04T06:36:22.104Z,6440.00
2018-09-04T06:37:22.022Z,6112.00
2018-09-04T06:38:22.006Z,5752.00
2018-09-04T06:39:22.014Z,5732.00
2018-09-04T06:40:21.990Z,6148.00
2018-09-04T06:41:21.972Z,6048.00
2018-09-04T06:42:22.026Z,6180.00
2018-09-04T06:43:21.954Z,5920.00
2018-09-04T06:44:21.953Z,5688.00
2018-09-04T06:45:21.926Z,5576.00
2018-09-04T06:46:21.925Z,5672.00
2018-09-04T06:47:21.907Z,5916.00
2018-09-04T06:48:21.954Z,6444.00
2018-09-04T06:49:21.909Z,6348.00
2018-09-04T06:50:21.878Z,6244.00
2018-09-04T06:51:21.868Z,6208.00
2018-09-04T06:52:21.852Z,6256.00
2018-09-04T06:53:21.857Z,6000.00
2018-09-04T06:54:21.905Z,6008.00
2018-09-04T06:55:21.829Z,6632.00
2018-09-04T06:56:21.820Z,7408.00
2018-09-04T06:57:21.800Z,9920.00
2018-09-04T06:58:21.786Z,13920.00
2018-09-04T06:59:21.790Z,14304.00
2018-09-04T07:00:21.825Z,14464.00
2018-09-04T07:01:21.793Z,14560.00
2018-09-04T07:02:21.744Z,14112.00
2018-09-04T07:03:21.731Z,14592.00
2018-09-04T07:04:21.771Z,15040.00
2018-09-04T07:05:21.709Z,16064.00
2018-09-04T07:06:21.787Z,15680.00
2018-09-04T07:07:21.714Z,13952.00
2018-09-04T07:08:21.677Z,12204.00
2018-09-04T07:09:21.685Z,10680.00
2018-09-04T07:10:21.653Z,12560.00
2018-09-04T07:11:21.646Z,16352.00
2018-09-04T07:12:21.673Z,14052.00
2018-09-04T07:13:21.619Z,8956.00
2018-09-04T07:14:21.624Z,7068.00
2018-09-04T07:15:21.607Z,7100.00
2018-09-04T07:16:21.589Z,7024.00
2018-09-04T07:17:21.581Z,7096.00
2018-09-04T07:18:21.564Z,7144.00
2018-09-04T07:19:21.645Z,7128.00
2018-09-04T07:20:21.547Z,7252.00
2018-09-04T07:21:21.538Z,7288.00
2018-09-04T07:22:21.525Z,7248.00
2018-09-04T07:23:21.510Z,7316.00
2018-09-04T07:24:21.577Z,7324.00
2018-09-04T07:25:21.544Z,7324.00
2018-09-04T07:26:21.479Z,7332.00
2018-09-04T07:27:21.467Z,7280.00
2018-09-04T07:28:21.463Z,7268.00
2018-09-04T07:29:21.459Z,7272.00
2018-09-04T07:30:21.434Z,7256.00
2018-09-04T07:31:21.447Z,7284.00
2018-09-04T07:32:21.413Z,7332.00
2018-09-04T07:33:21.408Z,7360.00
2018-09-04T07:34:21.446Z,7392.00
2018-09-04T07:35:21.388Z,7424.00
2018-09-04T07:36:21.425Z,7452.00
2018-09-04T07:37:21.363Z,7460.00
2018-09-04T07:38:21.405Z,7496.00
2018-09-04T07:39:21.344Z,7504.00
2018-09-04T07:40:21.377Z,7404.00
2018-09-04T07:41:21.357Z,7396.00
2018-09-04T07:42:21.346Z,7396.00
2018-09-04T07:43:21.447Z,7392.00
2018-09-04T07:44:21.302Z,7404.00
2018-09-04T07:45:21.303Z,7448.00
2018-09-04T07:46:21.278Z,7500.00
2018-09-04T07:47:21.257Z,7528.00
2018-09-04T07:48:21.312Z,7540.00
2018-09-04T07:49:21.246Z,7588.00
2018-09-04T07:50:21.231Z,7588.00
2018-09-04T07:51:21.227Z,7596.00
2018-09-04T07:52:21.275Z,7616.00
2018-09-04T07:53:21.183Z,7636.00
2018-09-04T07:54:21.200Z,7660.00
2018-09-04T07:55:21.299Z,7708.00
2018-09-04T07:56:21.184Z,7744.00
2018-09-04T07:57:21.146Z,7808.00
2018-09-04T07:58:21.136Z,7832.00
2018-09-04T07:59:21.226Z,7852.00
2018-09-04T08:00:21.165Z,7840.00
2018-09-04T08:01:21.095Z,7832.00
2018-09-04T08:02:21.097Z,7824.00
2018-09-04T08:03:21.083Z,7828.00
2018-09-04T08:04:21.134Z,7844.00
2018-09-04T08:05:21.083Z,7852.00
2018-09-04T08:06:21.073Z,7880.00
2018-09-04T08:07:21.040Z,7904.00
2018-09-04T08:08:21.109Z,7932.00
2018-09-04T08:09:21.012Z,7964.00
2018-09-04T08:10:21.024Z,7996.00
2018-09-04T08:11:20.995Z,8036.00
2018-09-04T08:12:20.984Z,8072.00
2018-09-04T08:13:20.974Z,8104.00
2018-09-04T08:14:20.963Z,8136.00
2018-09-04T08:15:20.975Z,8160.00
2018-09-04T08:16:21.017Z,8184.00
2018-09-04T08:17:20.951Z,8216.00
2018-09-04T08:18:20.926Z,8248.00
2018-09-04T08:19:20.938Z,8300.00
2018-09-04T08:20:21.007Z,8348.00
2018-09-04T08:21:20.890Z,8404.00
2018-09-04T08:22:20.892Z,8452.00
2018-09-04T08:23:20.865Z,8508.00
2018-09-04T08:24:20.862Z,8548.00
2018-09-04T08:25:20.898Z,8584.00
2018-09-04T08:26:20.912Z,8620.00
2018-09-04T08:27:20.857Z,8644.00
2018-09-04T08:28:20.821Z,8664.00
2018-09-04T08:29:20.805Z,8696.00
2018-09-04T08:30:20.807Z,8728.00
2018-09-04T08:31:20.816Z,8760.00
2018-09-04T08:32:20.773Z,8796.00
2018-09-04T08:33:20.867Z,8820.00
2018-09-04T08:34:20.741Z,8868.00
2018-09-04T08:35:20.735Z,8928.00
2018-09-04T08:36:20.742Z,8964.00
2018-09-04T08:37:20.732Z,9016.00
2018-09-04T08:38:20.732Z,9080.00
2018-09-04T08:39:20.701Z,9156.00
2018-09-04T08:40:20.777Z,9224.00
2018-09-04T08:41:20.686Z,9280.00
2018-09-04T08:42:20.666Z,9324.00
2018-09-04T08:43:20.650Z,9388.00
2018-09-04T08:44:20.637Z,9452.00
2018-09-04T08:45:20.621Z,9512.00
2018-09-04T08:46:20.798Z,9592.00
2018-09-04T08:47:20.663Z,9664.00
2018-09-04T08:48:20.605Z,9788.00
2018-09-04T08:49:20.709Z,9932.00
2018-09-04T08:50:20.567Z,10288.00
2018-09-04T08:51:20.583Z,13332.00
2018-09-04T08:52:20.548Z,14676.00
2018-09-04T08:53:20.542Z,12612.00
2018-09-04T08:54:20.685Z,37248.00
2018-09-04T08:55:20.638Z,59840.00
2018-09-04T08:56:20.516Z,62336.00
2018-09-04T08:57:20.493Z,60000.00
2018-09-04T08:58:20.479Z,57824.00
2018-09-04T08:59:20.471Z,57504.00
2018-09-04T09:00:20.462Z,57216.00
2018-09-04T09:01:20.463Z,56704.00
2018-09-04T09:02:20.515Z,56768.00
2018-09-04T09:03:20.433Z,57312.00
2018-09-04T09:04:20.489Z,55456.00
2018-09-04T09:05:20.411Z,53120.00
2018-09-04T09:06:20.413Z,54016.00
2018-09-04T09:07:20.385Z,54656.00
2018-09-04T09:08:20.372Z,53952.00
2018-09-04T09:09:20.359Z,54592.00
2018-09-04T09:10:20.426Z,55616.00
2018-09-04T09:11:20.387Z,55072.00
2018-09-04T09:12:20.346Z,56608.00
2018-09-04T09:13:20.315Z,59264.00
2018-09-04T09:14:20.311Z,59328.00
2018-09-04T09:15:20.335Z,58848.00
2018-09-04T09:16:20.303Z,58784.00
2018-09-04T09:17:20.314Z,58848.00
2018-09-04T09:18:20.270Z,59616.00
2018-09-04T09:19:20.278Z,59040.00
2018-09-04T09:20:20.253Z,57792.00
2018-09-04T09:21:20.311Z,56288.00
2018-09-04T09:22:20.220Z,55360.00
2018-09-04T09:23:20.217Z,45184.00
2018-09-04T09:24:20.259Z,20928.00
2018-09-04T09:25:20.200Z,28992.00
2018-09-04T09:26:20.203Z,54848.00
2018-09-04T09:27:20.173Z,60512.00
2018-09-04T09:28:20.158Z,62304.00
2018-09-04T09:29:20.187Z,60704.00
2018-09-04T09:30:20.157Z,58240.00
2018-09-04T09:31:20.162Z,56416.00
2018-09-04T09:32:20.117Z,59552.00
2018-09-04T09:33:20.112Z,59712.00
2018-09-04T09:34:20.116Z,14560.00
2018-09-04T09:35:20.214Z,13228.00
2018-09-04T09:36:20.165Z,13372.00
2018-09-04T09:37:20.104Z,25856.00
2018-09-04T09:38:20.069Z,57216.00
2018-09-04T09:39:20.077Z,23584.00
2018-09-04T09:40:20.038Z,19744.00
2018-09-04T09:41:20.067Z,38048.00
2018-09-04T09:42:20.007Z,67936.00
2018-09-04T09:43:20.003Z,68288.00
2018-09-04T09:44:20.007Z,66624.00
2018-09-04T09:45:20.089Z,60768.00
2018-09-04T09:46:19.981Z,60608.00
2018-09-04T09:47:19.984Z,66304.00
2018-09-04T09:48:19.956Z,45600.00
2018-09-04T09:49:19.952Z,20800.00
2018-09-04T09:50:19.937Z,44096.00
2018-09-04T09:51:19.924Z,67008.00
2018-09-04T09:52:19.930Z,67392.00
2018-09-04T09:53:20.155Z,68256.00
2018-09-04T09:54:19.888Z,69152.00
2018-09-04T09:55:19.918Z,69664.00
2018-09-04T09:56:19.879Z,69376.00
2018-09-04T09:57:19.894Z,69344.00
2018-09-04T09:58:19.843Z,70272.00
2018-09-04T09:59:19.944Z,72992.00
2018-09-04T10:00:19.868Z,72320.00
2018-09-04T10:01:19.838Z,69632.00
2018-09-04T10:02:19.835Z,59488.00
2018-09-04T10:03:19.794Z,37760.00
2018-09-04T10:04:19.781Z,27840.00
2018-09-04T10:05:19.889Z,26144.00
2018-09-04T10:06:19.783Z,51648.00
2018-09-04T10:07:19.782Z,31520.00
2018-09-04T10:08:19.790Z,30944.00
2018-09-04T10:09:19.733Z,52224.00
2018-09-04T10:10:19.770Z,45696.00
2018-09-04T10:11:19.707Z,32768.00
2018-09-04T10:12:19.794Z,26144.00
2018-09-04T10:13:19.682Z,72576.00
2018-09-04T10:14:19.671Z,64704.00
2018-09-04T10:15:19.696Z,31872.00
2018-09-04T10:16:19.660Z,41952.00
2018-09-04T10:17:19.689Z,68544.00
2018-09-04T10:18:19.716Z,69920.00
2018-09-04T10:19:19.624Z,69248.00
2018-09-04T10:20:19.646Z,69920.00
2018-09-04T10:21:19.634Z,69856.00
2018-09-04T10:22:19.606Z,69920.00
2018-09-04T10:23:19.578Z,69248.00
2018-09-04T10:24:19.569Z,68064.00
2018-09-04T10:25:19.565Z,42784.00
2018-09-04T10:26:19.640Z,32960.00
2018-09-04T10:27:19.559Z,61824.00
2018-09-04T10:28:19.539Z,70304.00
2018-09-04T10:29:19.518Z,70912.00
2018-09-04T10:30:19.521Z,70720.00
2018-09-04T10:31:19.518Z,69888.00
2018-09-04T10:32:19.573Z,51744.00
2018-09-04T10:33:19.484Z,50272.00
2018-09-04T10:34:19.470Z,44864.00
2018-09-04T10:35:19.456Z,24896.00
2018-09-04T10:36:19.517Z,25088.00
2018-09-04T10:37:19.456Z,66016.00
2018-09-04T10:38:19.430Z,29920.00
2018-09-04T10:39:19.470Z,34464.00
2018-09-04T10:40:19.407Z,28800.00
2018-09-04T10:41:19.436Z,58496.00
2018-09-04T10:42:19.414Z,40000.00
2018-09-04T10:43:19.397Z,47296.00
2018-09-04T10:44:19.425Z,71296.00
2018-09-04T10:45:19.403Z,71200.00
2018-09-04T10:46:19.348Z,71360.00
2018-09-04T10:47:19.387Z,71392.00
2018-09-04T10:48:19.343Z,44512.00
2018-09-04T10:49:19.349Z,42496.00
2018-09-04T10:50:19.359Z,72512.00
2018-09-04T10:51:19.325Z,73472.00
2018-09-04T10:52:19.335Z,66112.00
2018-09-04T10:53:19.297Z,41440.00
2018-09-04T10:54:19.313Z,56704.00
2018-09-04T10:55:19.270Z,74720.00
2018-09-04T10:56:19.242Z,76320.00
2018-09-04T10:57:19.236Z,54528.00
2018-09-04T10:58:19.242Z,22944.00
2018-09-04T10:59:19.215Z,40448.00
2018-09-04T11:00:19.370Z,73408.00
2018-09-04T11:01:19.201Z,58336.00
2018-09-04T11:02:19.240Z,82176.00
2018-09-04T11:03:19.218Z,76224.00
2018-09-04T11:04:19.173Z,73824.00
2018-09-04T11:05:19.166Z,75488.00
2018-09-04T11:06:19.154Z,76800.00
2018-09-04T11:07:19.144Z,82880.00
2018-09-04T11:08:19.204Z,84352.00
2018-09-04T11:09:19.139Z,84128.00
2018-09-04T11:10:19.143Z,83488.00
2018-09-04T11:11:19.102Z,79616.00
2018-09-04T11:12:19.087Z,72736.00
2018-09-04T11:13:19.092Z,78112.00
2018-09-04T11:14:19.064Z,88704.00
2018-09-04T11:15:19.157Z,81760.00
2018-09-04T11:16:19.053Z,81152.00
2018-09-04T11:17:19.037Z,79808.00
2018-09-04T11:18:19.039Z,81344.00
2018-09-04T11:19:19.016Z,80512.00
2018-09-04T11:20:19.003Z,82496.00
2018-09-04T11:21:19.059Z,46016.00
2018-09-04T11:22:19.016Z,54688.00
2018-09-04T11:23:19.006Z,80448.00
2018-09-04T11:24:18.968Z,75200.00
2018-09-04T11:25:18.955Z,85600.00
2018-09-04T11:26:18.984Z,86336.00
2018-09-04T11:27:18.933Z,83968.00
2018-09-04T11:28:18.984Z,66496.00
2018-09-04T11:29:18.913Z,77216.00
2018-09-04T11:30:18.911Z,80416.00
2018-09-04T11:31:18.914Z,86528.00
2018-09-04T11:32:18.895Z,53824.00
2018-09-04T11:33:18.891Z,56448.00
2018-09-04T11:34:18.884Z,48128.00
2018-09-04T11:35:18.866Z,41696.00
2018-09-04T11:36:18.909Z,40704.00
2018-09-04T11:37:18.886Z,32480.00
2018-09-04T11:38:18.885Z,24064.00
2018-09-04T11:39:18.816Z,21600.00
2018-09-04T11:40:18.831Z,17728.00
2018-09-04T11:41:18.820Z,16312.00
2018-09-04T11:42:18.804Z,14668.00
2018-09-04T11:43:18.807Z,13844.00
2018-09-04T11:44:18.770Z,13620.00
2018-09-04T11:45:18.896Z,13664.00
2018-09-04T11:46:18.750Z,12888.00
2018-09-04T11:47:18.735Z,12752.00
2018-09-04T11:48:18.747Z,13472.00
2018-09-04T11:49:18.735Z,13824.00
2018-09-04T11:50:18.746Z,15304.00
2018-09-04T11:51:18.708Z,13608.00
2018-09-04T11:52:18.707Z,13628.00
2018-09-04T11:53:18.777Z,12880.00
2018-09-04T11:54:18.685Z,12652.00
2018-09-04T11:55:18.644Z,13820.00
2018-09-04T11:56:18.639Z,14688.00
2018-09-04T11:57:18.635Z,15128.00
2018-09-04T11:58:18.628Z,15436.00
2018-09-04T11:59:18.627Z,15584.00
2018-09-04T12:00:18.688Z,16968.00
2018-09-04T12:01:18.592Z,18432.00
2018-09-04T12:02:18.683Z,19296.00
2018-09-04T12:03:18.571Z,20256.00
2018-09-04T12:04:18.590Z,20928.00
2018-09-04T12:05:18.607Z,20992.00
2018-09-04T12:06:18.545Z,22752.00
2018-09-04T12:07:18.637Z,22912.00
2018-09-04T12:08:18.514Z,31296.00
2018-09-04T12:09:18.517Z,34368.00
2018-09-04T12:10:18.540Z,28544.00
2018-09-04T12:11:18.528Z,31040.00
2018-09-04T12:12:18.507Z,31776.00
2018-09-04T12:13:18.523Z,31488.00
2018-09-04T12:14:18.475Z,29696.00
2018-09-04T12:15:18.505Z,28352.00
2018-09-04T12:16:18.429Z,34368.00
2018-09-04T12:17:18.422Z,30496.00
2018-09-04T12:18:18.423Z,23424.00
2018-09-04T12:19:18.543Z,22752.00
2018-09-04T12:20:18.410Z,21632.00
2018-09-04T12:21:18.498Z,20192.00
2018-09-04T12:22:18.369Z,18688.00
2018-09-04T12:23:18.401Z,16352.00
2018-09-04T12:24:18.391Z,13780.00